Time;durP1;ratioP1;P1;durP2;ratioP2;P2;SDS_P1;SDS_P2;PMS_P1;PMS_P2;Temp;Humidity;BMP_temperature;BMP_pressure;BME280_temperature;BME280_humidity;BME280_pressure;Samples;Min_cycle;Max_cycle;Signal;HPM_P1;HPM_P2
2022/02/04 00:24:20;;;;;;;0.10;0.10;;;;;;;10.42;67.06;101241.53;5083163;27;20449;-83
2022/02/04 00:26:55;;;;;;;0.40;0.40;;;;;;;10.42;67.44;101233.56;5065878;28;20033;-83
2022/02/04 00:29:29;;;;;;;0.10;0.10;;;;;;;10.52;66.98;101229.91;5050897;28;20524;-83
2022/02/04 00:32:02;;;;;;;0.10;0.10;;;;;;;10.57;66.81;101235.16;5065286;28;20386;-83
2022/02/04 00:34:35;;;;;;;0.25;0.25;;;;;;;10.50;66.97;101228.16;5053468;28;20562;-83
2022/02/04 00:37:26;;;;;;;0.25;0.25;;;;;;;10.44;66.99;101228.25;5061240;28;20026;-83
2022/02/04 00:39:56;;;;;;;0.32;0.32;;;;;;;10.42;66.87;101220.34;5046509;28;20085;-83
2022/02/04 00:42:22;;;;;;;1.02;1.02;;;;;;;10.53;66.70;101212.25;5055034;28;20472;-83
2022/02/04 00:44:56;;;;;;;0.63;0.63;;;;;;;10.61;66.30;101204.19;5067464;28;20046;-83
2022/02/04 00:47:25;;;;;;;0.10;0.10;;;;;;;10.54;66.37;101206.03;5059224;28;20025;-83
2022/02/04 00:50:03;;;;;;;0.60;0.60;;;;;;;10.56;66.14;101221.94;5054744;28;20037;-83
2022/02/04 01:06:30;;;;;;;0.20;0.20;;;;;;;10.48;66.03;101214.94;5053546;28;20036;-85
2022/02/04 01:26:07;;;;;;;0.10;0.10;;;;;;;10.56;65.68;101191.00;5049577;28;20045;-84
2022/02/04 01:28:21;;;;;;;0.10;0.10;;;;;;;10.54;65.66;101195.44;5047968;28;20052;-84
2022/02/04 01:30:48;;;;;;;0.10;0.10;;;;;;;10.59;65.50;101188.31;5041936;28;20037;-85
2022/02/04 01:33:14;;;;;;;0.10;0.10;;;;;;;10.49;65.73;101194.63;5040729;28;20034;-84
2022/02/04 01:35:41;;;;;;;2.17;0.80;;;;;;;10.54;65.71;101195.44;5042742;28;20026;-84
2022/02/04 01:38:08;;;;;;;0.10;0.10;;;;;;;10.52;65.72;101192.81;5033441;28;20022;-84
2022/02/04 01:40:34;;;;;;;0.10;0.10;;;;;;;10.59;65.42;101188.31;5041942;28;20073;-85
2022/02/04 01:43:00;;;;;;;0.22;0.22;;;;;;;10.51;65.47;101187.53;5043695;28;20041;-85
2022/02/04 01:45:27;;;;;;;0.10;0.10;;;;;;;10.59;65.62;101196.25;5049131;28;20057;-85
2022/02/04 01:47:56;;;;;;;0.30;0.30;;;;;;;10.50;65.55;101196.38;5049492;28;20136;-85
2022/02/04 01:50:25;;;;;;;0.10;0.10;;;;;;;10.56;65.33;101185.69;5053605;28;20034;-84
2022/02/04 01:52:51;;;;;;;0.65;0.65;;;;;;;10.54;65.80;101191.91;5054481;28;20388;-84
2022/02/04 01:55:18;;;;;;;0.20;0.20;;;;;;;10.47;65.71;101192.00;5049598;28;20065;-84
2022/02/04 01:57:45;;;;;;;0.40;0.40;;;;;;;10.53;65.80;101191.06;5036537;28;20025;-84
2022/02/04 02:00:12;;;;;;;0.10;0.10;;;;;;;10.55;65.78;101183.94;5045642;28;20037;-84
2022/02/04 02:02:38;;;;;;;0.10;0.10;;;;;;;10.59;65.17;101180.38;5049097;28;20034;-83
2022/02/04 02:05:05;;;;;;;0.10;0.10;;;;;;;10.59;65.13;101176.81;5041288;28;20064;-83
2022/02/04 02:07:32;;;;;;;0.57;0.57;;;;;;;10.52;65.50;101168.09;5040730;28;20064;-84
2022/02/04 02:10:05;;;;;;;0.10;0.10;;;;;;;10.56;65.50;101169.78;5042767;28;20380;-84
2022/02/04 02:12:41;;;;;;;0.17;0.17;;;;;;;10.48;65.88;101163.72;5022464;28;20030;-84
2022/02/04 02:15:19;;;;;;;0.15;0.15;;;;;;;10.52;65.75;101149.56;5024016;28;20033;-84
2022/02/04 02:34:55;;;;;;;0.10;0.10;;;;;;;10.56;65.18;101132.69;5033795;28;20037;-84
2022/02/04 02:45:48;;;;;;;0.40;0.40;;;;;;;10.71;64.25;101130.72;5023831;28;20041;-84
2022/02/04 02:48:37;;;;;;;0.10;0.10;;;;;;;10.64;64.64;101136.13;5034743;28;20034;-84
2022/02/04 02:57:02;;;;;;;3.33;0.75;;;;;;;10.61;64.70;101114.94;5109922;28;20712;-84
2022/02/04 02:59:22;;;;;;;0.05;0.05;;;;;;;10.67;64.47;101119.28;5107621;28;20024;-84
2022/02/04 03:01:50;;;;;;;0.10;0.10;;;;;;;10.66;64.14;101114.88;5110008;28;20031;-83
2022/02/04 03:04:21;;;;;;;0.22;0.22;;;;;;;10.57;64.41;101118.56;5110501;28;20024;-83
2022/02/04 03:06:54;;;;;;;0.10;0.10;;;;;;;10.70;64.04;101115.72;5098679;28;20027;-84
2022/02/04 03:09:21;;;;;;;0.80;0.77;;;;;;;10.72;63.72;101111.28;5105005;28;20491;-84
2022/02/04 03:11:48;;;;;;;0.13;0.13;;;;;;;10.72;63.90;101116.59;5111792;28;20068;-82
2022/02/04 03:14:14;;;;;;;0.05;0.05;;;;;;;10.73;63.67;101097.09;5111781;28;20060;-83
2022/02/04 03:16:43;;;;;;;0.10;0.10;;;;;;;10.64;64.03;101096.38;5077641;28;20032;-85
2022/02/04 03:19:09;;;;;;;0.32;0.32;;;;;;;10.69;63.55;101101.56;5098801;28;20115;-83
2022/02/04 03:21:40;;;;;;;0.08;0.08;;;;;;;10.66;63.77;101102.50;5106397;28;20027;-85
2022/02/04 03:24:11;;;;;;;0.17;0.17;;;;;;;10.59;64.05;101099.97;5078756;28;20056;-85
2022/02/04 03:26:47;;;;;;;0.63;0.63;;;;;;;10.64;63.62;101101.66;5094124;28;20036;-83
2022/02/04 03:29:18;;;;;;;0.30;0.30;;;;;;;10.57;63.69;101096.50;5102757;28;20028;-83
2022/02/04 03:31:49;;;;;;;0.10;0.10;;;;;;;10.70;63.53;101087.44;5102141;28;20395;-83
2022/02/04 03:34:17;;;;;;;0.10;0.10;;;;;;;10.61;64.01;101080.50;5106590;28;20035;-85
2022/02/04 03:36:43;;;;;;;0.00;0.00;;;;;;;10.59;63.83;101087.63;5094694;28;20461;-86
2022/02/04 03:39:09;;;;;;;0.08;0.08;;;;;;;10.61;63.75;101082.28;5101925;28;20552;-83
2022/02/04 03:41:38;;;;;;;0.00;0.00;;;;;;;10.70;63.29;101076.84;5105333;28;20043;-82
2022/02/04 03:44:05;;;;;;;0.28;0.28;;;;;;;10.63;63.54;101073.41;5091793;28;20037;-82
2022/02/04 03:46:31;;;;;;;0.10;0.10;;;;;;;10.71;63.32;101080.38;5086001;28;20408;-82
2022/02/04 03:48:57;;;;;;;0.10;0.10;;;;;;;10.70;63.51;101084.78;5103236;28;20024;-82
2022/02/04 03:51:24;;;;;;;0.10;0.10;;;;;;;10.65;63.30;101081.34;5107619;28;20089;-83
2022/02/04 03:53:50;;;;;;;0.10;0.10;;;;;;;10.67;63.75;101083.06;5109691;28;20024;-83
2022/02/04 03:56:16;;;;;;;0.10;0.10;;;;;;;10.65;63.70;101084.00;5092713;28;20113;-83
2022/02/04 03:58:42;;;;;;;0.10;0.10;;;;;;;10.68;63.28;101081.31;5105040;28;20038;-83
2022/02/04 04:01:09;;;;;;;0.00;0.00;;;;;;;10.57;63.85;101072.66;5104532;28;20467;-83
2022/02/04 04:03:35;;;;;;;1.00;1.00;;;;;;;10.70;63.80;101075.97;5102519;28;20044;-84
2022/02/04 04:06:02;;;;;;;0.10;0.10;;;;;;;10.64;63.87;101069.88;5095980;28;20032;-84
2022/02/04 04:08:28;;;;;;;0.10;0.10;;;;;;;10.49;63.69;101067.47;5074718;28;20040;-83
2022/02/04 04:10:54;;;;;;;0.10;0.10;;;;;;;10.60;63.64;101070.81;5074671;28;20031;-84
2022/02/04 04:13:20;;;;;;;0.10;0.10;;;;;;;10.65;63.59;101074.28;5085370;28;20189;-84
2022/02/04 04:15:47;;;;;;;0.10;0.10;;;;;;;10.54;63.88;101065.59;5078025;28;20058;-84
2022/02/04 04:18:13;;;;;;;0.13;0.13;;;;;;;10.64;63.47;101056.63;5091966;28;20071;-84
2022/02/04 04:20:41;;;;;;;0.10;0.10;;;;;;;10.48;64.13;101071.00;5081951;28;20031;-84
2022/02/04 04:23:08;;;;;;;0.40;0.40;;;;;;;10.51;63.83;101055.06;5087060;28;20033;-84
2022/02/04 04:25:34;;;;;;;0.13;0.13;;;;;;;10.50;63.79;101080.69;5086946;28;20042;-84
2022/02/04 04:28:00;;;;;;;0.10;0.10;;;;;;;10.65;63.30;101071.63;5082107;28;20028;-84
2022/02/04 04:30:27;;;;;;;0.00;0.00;;;;;;;10.64;63.58;101066.34;5091004;28;20040;-84
2022/02/04 04:32:58;;;;;;;0.10;0.10;;;;;;;10.68;63.43;101068.91;5094417;28;20509;-84
2022/02/04 04:35:26;;;;;;;0.10;0.10;;;;;;;10.61;63.61;101067.25;5084760;28;20505;-84
2022/02/04 04:41:01;;;;;;;0.82;0.82;;;;;;;10.59;63.29;101053.19;5066185;27;20911;-84
2022/02/04 04:44:06;;;;;;;0.10;0.10;;;;;;;10.54;63.81;101052.34;5043045;27;20035;-84
2022/02/04 05:26:00;;;;;;;0.15;0.15;;;;;;;10.49;63.76;101047.16;5135672;27;20401;-83
2022/02/04 05:28:34;;;;;;;0.10;0.10;;;;;;;10.45;64.23;100994.25;5068694;28;20098;-84
2022/02/04 05:30:47;;;;;;;0.10;0.10;;;;;;;10.51;64.00;100991.50;5060712;28;20484;-84
2022/02/04 05:33:13;;;;;;;0.10;0.10;;;;;;;10.59;63.57;100994.91;5069326;28;20036;-84
2022/02/04 05:35:39;;;;;;;0.65;0.40;;;;;;;10.48;64.13;100997.72;5069610;28;20361;-84
2022/02/04 05:38:09;;;;;;;0.10;0.10;;;;;;;10.51;64.09;100996.78;5069155;28;20033;-84
2022/02/04 05:40:40;;;;;;;0.13;0.13;;;;;;;10.55;64.25;100981.72;5053458;28;20115;-84
2022/02/04 05:43:16;;;;;;;0.20;0.20;;;;;;;10.53;64.03;100979.09;5068626;28;20051;-84
2022/02/04 05:45:51;;;;;;;0.00;0.00;;;;;;;10.59;63.53;100979.00;5062688;28;20484;-84
2022/02/04 05:48:17;;;;;;;0.10;0.10;;;;;;;10.45;64.26;100986.31;5066522;28;20033;-84
2022/02/04 05:50:57;;;;;;;0.90;0.75;;;;;;;10.49;64.20;100964.13;5069436;28;20130;-84
2022/02/04 05:53:30;;;;;;;0.10;0.10;;;;;;;10.49;64.01;100958.84;5068105;28;20070;-83
2022/02/04 05:56:10;;;;;;;0.10;0.10;;;;;;;10.48;64.18;100970.34;5064500;28;20111;-84
2022/02/04 05:58:55;;;;;;;0.10;0.10;;;;;;;10.36;64.84;100961.69;5055551;28;20028;-84
2022/02/04 06:01:33;;;;;;;0.08;0.08;;;;;;;10.53;64.33;100942.00;5055124;28;20029;-84
2022/02/04 06:04:27;;;;;;;0.10;0.10;;;;;;;10.49;64.36;100950.91;5062532;28;20112;-83
2022/02/04 06:23:35;;;;;;;0.10;0.10;;;;;;;10.51;65.30;100959.69;5062201;28;20040;-83
2022/02/04 06:26:01;;;;;;;0.10;0.10;;;;;;;10.46;65.71;100967.72;5061761;28;20078;-83
2022/02/04 06:28:28;;;;;;;0.10;0.10;;;;;;;10.49;65.68;100961.50;5068486;28;20036;-83
2022/02/04 06:30:54;;;;;;;0.10;0.10;;;;;;;10.47;65.70;100952.72;5068611;28;20372;-81
2022/02/04 06:33:20;;;;;;;0.10;0.10;;;;;;;10.55;65.46;100934.88;5069508;28;20024;-81
2022/02/04 06:35:47;;;;;;;0.10;0.10;;;;;;;10.43;65.88;100966.91;5064732;28;20443;-81
2022/02/04 06:38:13;;;;;;;0.10;0.10;;;;;;;10.48;66.08;100954.44;5064210;28;20025;-81
2022/02/04 06:40:39;;;;;;;0.30;0.30;;;;;;;10.53;65.93;100952.63;5066809;28;20360;-82
2022/02/04 06:43:05;;;;;;;0.03;0.03;;;;;;;10.48;66.23;100943.84;5059365;28;20065;-84
2022/02/04 06:45:31;;;;;;;0.10;0.10;;;;;;;10.46;66.24;100945.66;5067968;28;20083;-83
2022/02/04 06:47:57;;;;;;;0.10;0.10;;;;;;;10.48;65.86;100949.13;5065794;28;20032;-84
2022/02/04 06:50:23;;;;;;;2.38;1.60;;;;;;;10.40;66.85;100940.47;5062369;28;20504;-83
2022/02/04 06:52:53;;;;;;;0.30;0.30;;;;;;;10.57;65.89;100946.34;5063065;28;20036;-82
2022/02/04 06:55:21;;;;;;;0.10;0.10;;;;;;;10.43;66.52;100937.75;5051969;28;21900;-83
2022/02/04 06:57:48;;;;;;;0.10;0.10;;;;;;;10.51;66.39;100934.06;5055805;28;20056;-82
2022/02/04 07:00:17;;;;;;;0.10;0.10;;;;;;;10.44;66.61;100923.63;5064827;28;20494;-83
2022/02/04 07:02:45;;;;;;;0.55;0.55;;;;;;;10.46;66.42;100919.19;5060876;28;20032;-84
2022/02/04 07:05:13;;;;;;;0.68;0.68;;;;;;;10.37;66.83;100922.88;5060689;28;20527;-84
2022/02/04 07:07:44;;;;;;;0.10;0.10;;;;;;;10.37;66.76;100925.50;5058311;28;20074;-84
2022/02/04 07:10:13;;;;;;;0.13;0.13;;;;;;;10.42;66.87;100933.34;5065789;28;20115;-84
2022/02/04 07:12:50;;;;;;;0.63;0.57;;;;;;;10.34;66.75;100926.41;5063791;28;20040;-84
2022/02/04 07:15:48;;;;;;;0.10;0.10;;;;;;;10.46;66.84;100929.78;5057289;28;20538;-85
2022/02/04 07:19:45;;;;;;;0.30;0.30;;;;;;;10.47;66.49;100936.81;5065933;28;20559;-84
2022/02/04 07:20:49;;;;;;;0.10;0.10;;;;;;;10.45;66.78;100939.47;5042201;28;20429;-84
2022/02/04 07:23:15;;;;;;;0.10;0.10;;;;;;;10.31;67.11;100950.28;5051025;28;20035;-85
2022/02/04 07:25:41;;;;;;;0.10;0.10;;;;;;;10.38;67.23;100926.38;5054220;28;20109;-84
2022/02/04 07:28:07;;;;;;;0.10;0.10;;;;;;;10.41;67.17;100929.00;5054861;28;20110;-84
2022/02/04 07:30:33;;;;;;;0.10;0.10;;;;;;;10.46;66.84;100932.41;5054300;28;20029;-84
2022/02/04 07:33:14;;;;;;;0.03;0.03;;;;;;;10.54;66.75;100927.84;5054887;28;20059;-82
2022/02/04 07:38:37;;;;;;;0.10;0.10;;;;;;;10.51;66.81;100922.63;5054590;28;20040;-84
2022/02/04 07:41:19;;;;;;;0.10;0.10;;;;;;;10.46;67.09;100927.13;5050775;28;20037;-82
2022/02/04 07:43:45;;;;;;;0.20;0.20;;;;;;;10.39;67.48;100926.34;5049282;28;20025;-84
2022/02/04 07:46:13;;;;;;;0.30;0.30;;;;;;;10.50;66.97;100932.34;5051886;28;20037;-84
2022/02/04 07:48:40;;;;;;;0.38;0.38;;;;;;;10.54;67.00;100926.97;5052720;28;20044;-84
2022/02/04 07:51:07;;;;;;;0.10;0.10;;;;;;;10.56;67.02;100926.03;5045740;28;20032;-84
2022/02/04 07:53:34;;;;;;;0.50;0.50;;;;;;;10.54;67.03;100925.19;5044594;28;20064;-84
2022/02/04 07:56:02;;;;;;;1.05;1.05;;;;;;;10.50;66.99;100927.06;5051305;28;20029;-83
2022/02/04 07:58:31;;;;;;;1.52;1.42;;;;;;;10.64;66.46;100913.53;5051178;28;20055;-83
2022/02/04 08:00:59;;;;;;;0.20;0.20;;;;;;;10.61;66.51;100902.97;5049722;28;20083;-83
2022/02/04 08:03:32;;;;;;;0.10;0.10;;;;;;;10.70;66.26;100898.41;5051457;28;20053;-83
2022/02/04 08:06:06;;;;;;;0.10;0.10;;;;;;;10.66;66.51;100906.41;5049119;28;20040;-83
2022/02/04 08:12:00;;;;;;;0.10;0.10;;;;;;;10.79;66.22;100884.97;5068477;27;20179;-84
2022/02/04 08:29:43;;;;;;;0.10;0.10;;;;;;;10.63;65.93;100872.03;5065914;27;20410;-82
2022/02/04 08:37:41;;;;;;;0.10;0.10;;;;;;;10.91;65.18;100863.50;5107184;28;20525;-84
2022/02/04 08:50:39;;;;;;;0.10;0.10;;;;;;;10.97;65.14;100859.88;5025493;27;1469683;-83
2022/02/04 08:53:33;;;;;;;0.10;0.10;;;;;;;10.78;66.11;100843.47;5059098;28;20071;-84
2022/02/04 08:55:57;;;;;;;0.10;0.10;;;;;;;10.79;65.64;100854.06;5060421;28;20032;-86
2022/02/04 08:58:41;;;;;;;0.10;0.10;;;;;;;10.80;65.83;100845.22;5065967;28;20048;-83
2022/02/04 09:01:13;;;;;;;0.10;0.10;;;;;;;10.86;65.93;100838.03;5063635;28;20025;-84
2022/02/04 09:06:35;;;;;;;0.10;0.10;;;;;;;10.97;65.27;100834.22;5078708;28;20586;-83
2022/02/04 09:09:02;;;;;;;0.10;0.10;;;;;;;11.00;65.46;100842.13;5046956;28;20022;-82
2022/02/04 09:11:40;;;;;;;0.25;0.25;;;;;;;10.95;65.49;100840.47;5047755;28;20103;-82
2022/02/04 09:19:57;;;;;;;0.10;0.10;;;;;;;11.17;65.09;100823.16;5035843;28;20052;-82
2022/02/04 09:25:05;;;;;;;0.25;0.25;;;;;;;11.14;64.94;100795.84;5066644;27;20419;-82
2022/02/04 09:27:33;;;;;;;0.35;0.35;;;;;;;11.12;64.82;100808.28;5063629;28;20483;-83
2022/02/04 09:30:00;;;;;;;0.80;0.52;;;;;;;11.06;64.69;100829.63;5062856;28;20488;-83
2022/02/04 09:32:26;;;;;;;0.10;0.10;;;;;;;11.13;64.57;100796.78;5066049;28;20032;-83
2022/02/04 09:34:54;;;;;;;1.25;0.57;;;;;;;11.15;64.18;100819.69;5068541;28;20542;-82
2022/02/04 09:37:20;;;;;;;0.47;0.47;;;;;;;11.14;64.41;100811.75;5068580;28;20024;-83
2022/02/04 09:39:46;;;;;;;0.10;0.10;;;;;;;11.13;64.12;100816.19;5068326;28;20098;-83
2022/02/04 09:42:13;;;;;;;0.35;0.35;;;;;;;10.98;64.43;100812.13;5067823;28;20099;-85
2022/02/04 09:44:39;;;;;;;0.20;0.20;;;;;;;11.29;64.03;100821.13;5067632;28;20043;-85
2022/02/04 09:47:05;;;;;;;0.70;0.43;;;;;;;11.26;64.30;100795.56;5068089;28;20024;-87
2022/02/04 09:49:37;;;;;;;0.10;0.10;;;;;;;11.04;64.59;100802.28;5060094;28;20033;-85
2022/02/04 10:09:08;;;;;;;0.10;0.10;;;;;;;11.44;63.73;100777.44;5046888;28;20410;-86
2022/02/04 10:12:28;;;;;;;0.10;0.10;;;;;;;11.53;63.29;100763.13;5049442;28;20045;-87
2022/02/04 10:17:28;;;;;;;0.10;0.10;;;;;;;11.78;62.97;100750.06;5085224;27;20402;-86
2022/02/04 10:19:58;;;;;;;0.05;0.05;;;;;;;11.38;63.70;100751.97;5061979;28;20083;-86
2022/02/04 10:22:29;;;;;;;0.10;0.10;;;;;;;11.54;63.94;100743.59;5082059;28;20060;-84
2022/02/04 10:28:00;;;;;;;0.10;0.10;;;;;;;11.45;63.51;100742.06;5062721;27;20402;-82
2022/02/04 10:30:31;;;;;;;0.00;0.00;;;;;;;11.50;63.17;100769.34;5059286;28;20042;-83
2022/02/04 10:32:59;;;;;;;0.10;0.10;;;;;;;11.54;62.74;100728.56;5059480;28;20048;-84
2022/02/04 10:35:31;;;;;;;0.20;0.20;;;;;;;11.54;63.25;100740.94;5048951;28;20494;-83
2022/02/04 10:46:52;;;;;;;0.10;0.10;;;;;;;11.56;62.24;100710.81;5042121;27;1211297;-82
2022/02/04 10:49:32;;;;;;;0.10;0.10;;;;;;;11.46;62.03;100707.56;5051144;28;20322;-84
2022/02/04 10:55:41;;;;;;;0.15;0.15;;;;;;;11.70;62.23;100694.53;5089129;27;20348;-83
2022/02/04 10:58:41;;;;;;;0.05;0.05;;;;;;;11.80;61.30;100695.13;5087861;28;20044;-84
2022/02/04 11:01:15;;;;;;;0.10;0.10;;;;;;;11.67;61.50;100693.75;5088733;28;20494;-84
2022/02/04 11:03:26;;;;;;;0.00;0.00;;;;;;;11.68;60.77;100679.59;5069015;28;20037;-83
2022/02/04 11:06:06;;;;;;;0.10;0.10;;;;;;;11.58;61.39;100673.66;5069005;28;20049;-85
2022/02/04 11:12:07;;;;;;;0.10;0.10;;;;;;;11.49;61.29;100666.81;5085624;28;20438;-84
2022/02/04 11:21:59;;;;;;;0.10;0.10;;;;;;;11.52;61.27;100658.75;5087380;28;20036;-83
2022/02/04 11:31:07;;;;;;;0.00;0.00;;;;;;;11.54;60.42;100654.28;5008270;28;20045;-83
2022/02/04 11:34:22;;;;;;;0.10;0.10;;;;;;;11.76;59.94;100653.69;5007774;28;20105;-86
2022/02/04 11:54:30;;;;;;;0.10;0.10;;;;;;;11.43;60.24;100600.66;5090567;28;20174;-82
2022/02/04 11:59:47;;;;;;;0.10;0.10;;;;;;;11.50;59.99;100599.53;5070650;27;20921;-83
2022/02/04 12:02:32;;;;;;;0.13;0.13;;;;;;;11.51;60.31;100561.47;5069601;28;20035;-85
2022/02/04 12:10:43;;;;;;;0.20;0.20;;;;;;;11.47;59.85;100565.16;5070784;27;20460;-84
2022/02/04 12:13:10;;;;;;;0.10;0.10;;;;;;;11.29;60.41;100556.78;5057185;28;20051;-83
2022/02/04 12:21:21;;;;;;;2.38;0.98;;;;;;;11.40;60.07;100542.34;5074135;27;20994;-83
2022/02/04 12:23:49;;;;;;;4.38;3.22;;;;;;;11.43;61.31;100531.66;5068011;28;20092;-83
2022/02/04 12:26:33;;;;;;;1.50;1.45;;;;;;;11.52;61.68;100531.41;5068820;28;20053;-83
2022/02/04 12:29:05;;;;;;;1.45;1.33;;;;;;;11.24;62.58;100532.19;5068540;28;20083;-81
2022/02/04 12:31:41;;;;;;;0.25;0.25;;;;;;;11.14;63.24;100523.63;5058406;28;20084;-80
2022/02/04 12:34:12;;;;;;;0.10;0.10;;;;;;;10.83;63.76;100518.28;5057010;28;20025;-82
2022/02/04 12:36:42;;;;;;;0.10;0.10;;;;;;;10.79;64.87;100528.06;5067515;28;20025;-81
2022/02/04 12:39:13;;;;;;;0.13;0.13;;;;;;;10.63;65.57;100535.53;5068599;28;20056;-81
2022/02/04 12:41:44;;;;;;;0.10;0.10;;;;;;;10.55;66.04;100516.31;5068030;28;20041;-82
2022/02/04 12:44:14;;;;;;;4.20;1.33;;;;;;;10.58;65.82;100504.75;5068296;28;20134;-81
2022/02/04 12:46:45;;;;;;;0.82;0.82;;;;;;;10.37;66.99;100496.47;5061357;28;20025;-79
2022/02/04 12:49:14;;;;;;;0.10;0.10;;;;;;;10.46;66.96;100490.06;5062874;28;20490;-81
2022/02/04 12:51:51;;;;;;;0.10;0.10;;;;;;;10.34;67.10;100465.59;5069355;28;20372;-79
2022/02/04 12:54:34;;;;;;;0.10;0.10;;;;;;;10.40;66.94;100503.47;5069788;28;20029;-81
2022/02/04 13:11:17;;;;;;;1.27;1.20;;;;;;;10.14;69.15;100449.34;5090709;27;20411;-81
2022/02/04 13:13:48;;;;;;;0.40;0.40;;;;;;;10.23;68.54;100446.47;5070886;28;20028;-81
2022/02/04 13:16:33;;;;;;;0.10;0.10;;;;;;;10.24;68.48;100453.47;5051220;28;20396;-81
2022/02/04 13:19:03;;;;;;;0.10;0.10;;;;;;;10.20;68.73;100463.31;5050731;28;20492;-82
2022/02/04 13:21:32;;;;;;;0.10;0.10;;;;;;;10.00;69.26;100511.41;5048260;28;20045;-85
2022/02/04 13:24:04;;;;;;;0.10;0.10;;;;;;;10.16;68.68;100591.34;5046672;28;20361;-81
2022/02/04 13:26:31;;;;;;;0.10;0.10;;;;;;;9.52;64.37;100594.44;5050130;28;20499;-82
2022/02/04 13:28:59;;;;;;;0.10;0.10;;;;;;;8.79;64.90;100617.78;5046316;28;20025;-81
2022/02/04 13:31:26;;;;;;;0.10;0.10;;;;;;;8.29;63.85;100573.63;5041658;28;21024;-80
2022/02/04 13:33:56;;;;;;;0.10;0.10;;;;;;;7.80;66.35;100579.56;5030701;28;20051;-81
2022/02/04 13:36:44;;;;;;;0.10;0.10;;;;;;;7.73;66.97;100587.56;5032112;28;20026;-81
2022/02/04 13:39:24;;;;;;;0.10;0.10;;;;;;;7.42;67.98;100595.81;5046874;28;20037;-82
2022/02/04 13:42:10;;;;;;;0.20;0.20;;;;;;;7.33;68.55;100606.47;5047134;28;20024;-81
2022/02/04 13:44:47;;;;;;;0.10;0.10;;;;;;;7.31;68.62;100602.13;5047392;28;20384;-86
2022/02/04 13:58:56;;;;;;;0.10;0.10;;;;;;;6.82;68.40;100629.75;5059643;27;20407;-82
2022/02/04 14:01:16;;;;;;;0.10;0.10;;;;;;;6.80;68.75;100635.06;5064144;28;20611;-82
2022/02/04 14:03:49;;;;;;;0.13;0.13;;;;;;;6.80;68.60;100635.94;5058852;28;20028;-84
2022/02/04 14:06:19;;;;;;;0.15;0.15;;;;;;;6.78;68.88;100656.13;5057861;28;20083;-82
2022/02/04 14:09:07;;;;;;;0.10;0.10;;;;;;;6.80;68.83;100664.91;5061576;28;20021;-83
2022/02/04 14:11:38;;;;;;;0.10;0.10;;;;;;;6.84;68.92;100665.78;5059697;28;20527;-83
2022/02/04 14:14:28;;;;;;;0.20;0.20;;;;;;;6.94;68.81;100661.28;5054561;28;20034;-84
2022/02/04 14:17:01;;;;;;;0.13;0.13;;;;;;;6.79;68.64;100693.88;5061935;28;20049;-82
2022/02/04 14:19:28;;;;;;;0.10;0.10;;;;;;;6.68;68.93;100691.31;5058665;28;20025;-81
2022/02/04 14:21:57;;;;;;;0.20;0.20;;;;;;;6.52;69.17;100695.81;5048255;28;20527;-83
2022/02/04 14:24:23;;;;;;;0.10;0.10;;;;;;;6.65;68.80;100693.97;5062625;28;20068;-87
2022/02/04 14:26:57;;;;;;;0.10;0.10;;;;;;;6.80;68.61;100698.25;5064098;28;20041;-81
2022/02/04 14:29:30;;;;;;;0.20;0.20;;;;;;;6.80;68.89;100696.50;5046384;28;20472;-82
2022/02/04 14:32:10;;;;;;;0.10;0.10;;;;;;;6.84;69.14;100696.47;5048948;28;20457;-84
2022/02/04 14:51:38;;;;;;;0.10;0.10;;;;;;;6.91;68.95;100788.59;5041095;28;20583;-84
2022/02/04 14:54:06;;;;;;;4.05;1.88;;;;;;;6.89;68.92;100787.75;5049864;28;20045;-84
2022/02/04 15:02:11;;;;;;;0.20;0.20;;;;;;;6.83;69.10;100805.34;5110247;27;20388;-85
2022/02/04 15:04:43;;;;;;;0.10;0.10;;;;;;;6.95;68.72;100807.91;5109531;28;20403;-82
2022/02/04 15:07:11;;;;;;;0.20;0.20;;;;;;;6.89;68.94;100811.47;5109816;28;20024;-84
2022/02/04 15:09:42;;;;;;;0.10;0.10;;;;;;;6.88;69.05;100822.88;5102752;28;20020;-82
2022/02/04 15:12:08;;;;;;;0.10;0.10;;;;;;;6.84;69.28;100826.41;5088624;28;20028;-84
2022/02/04 15:14:35;;;;;;;0.10;0.10;;;;;;;6.95;69.24;100832.50;5088423;28;20116;-84
2022/02/04 15:17:01;;;;;;;0.10;0.10;;;;;;;6.99;68.76;100843.91;5087798;28;20461;-84
2022/02/04 15:19:32;;;;;;;0.10;0.10;;;;;;;6.93;69.03;100849.19;5089161;28;20123;-82
2022/02/04 15:22:01;;;;;;;0.10;0.10;;;;;;;6.70;69.14;100859.81;5089032;28;20123;-82
2022/02/04 15:24:27;;;;;;;0.10;0.10;;;;;;;6.64;69.23;100874.75;5089118;28;20488;-85
2022/02/04 15:26:58;;;;;;;0.10;0.10;;;;;;;6.80;69.04;100882.59;5089025;28;20032;-84
2022/02/04 15:29:25;;;;;;;0.10;0.10;;;;;;;6.76;68.92;100887.00;5088620;28;20032;-84
2022/02/04 15:31:55;;;;;;;0.20;0.20;;;;;;;6.79;68.49;100921.25;5088583;28;20031;-84
2022/02/04 15:34:23;;;;;;;0.10;0.10;;;;;;;6.83;68.44;100908.03;5088112;28;20028;-84
2022/02/04 15:36:51;;;;;;;0.10;0.10;;;;;;;6.68;68.85;100928.28;5088459;28;20082;-83
2022/02/04 15:39:26;;;;;;;0.10;0.10;;;;;;;6.59;68.73;100928.28;5088502;28;20024;-83
2022/02/04 15:41:56;;;;;;;0.10;0.10;;;;;;;6.58;68.73;100947.59;5088122;28;20032;-83
2022/02/04 15:44:35;;;;;;;0.05;0.05;;;;;;;6.43;69.11;100930.97;5088120;28;20491;-82
2022/02/04 15:47:38;;;;;;;0.10;0.10;;;;;;;6.55;68.44;100924.78;5087963;28;20064;-84
2022/02/04 15:58:18;;;;;;;0.10;0.10;;;;;;;6.60;68.42;100973.06;5086783;27;20422;-82
2022/02/04 16:03:56;;;;;;;0.10;0.10;;;;;;;6.75;67.75;100972.16;5088063;27;20393;-81
2022/02/04 16:06:24;;;;;;;0.22;0.22;;;;;;;6.72;67.79;100982.69;5058372;28;20108;-86
2022/02/04 16:08:54;;;;;;;0.65;0.57;;;;;;;6.69;67.79;100980.09;5047540;28;20041;-87
2022/02/04 16:14:18;;;;;;;0.20;0.20;;;;;;;6.67;67.98;101005.53;5087137;28;20963;-81
2022/02/04 16:16:51;;;;;;;0.20;0.20;;;;;;;6.69;68.07;101016.94;5057451;28;20029;-83
2022/02/04 16:30:40;;;;;;;0.10;0.10;;;;;;;6.01;67.49;101045.84;5027100;28;20050;-81
2022/02/04 16:33:06;;;;;;;0.10;0.10;;;;;;;5.99;67.14;101063.38;5025075;28;20092;-83
2022/02/04 16:35:33;;;;;;;0.10;0.10;;;;;;;5.89;67.38;101078.22;5026332;28;20069;-82
2022/02/04 16:38:03;;;;;;;0.10;0.10;;;;;;;5.88;67.42;101078.22;5025445;28;20038;-82
2022/02/04 16:40:31;;;;;;;0.10;0.10;;;;;;;5.87;67.07;101085.25;5027322;28;20037;-83
2022/02/04 16:43:10;;;;;;;0.10;0.10;;;;;;;5.86;67.68;101087.84;5018872;28;20034;-83
2022/02/04 16:45:56;;;;;;;0.10;0.10;;;;;;;5.93;67.91;101100.13;5012671;28;20117;-83
2022/02/04 16:54:13;;;;;;;0.10;0.10;;;;;;;6.11;67.31;101116.00;5022926;28;20076;-83
2022/02/04 16:56:55;;;;;;;0.10;0.10;;;;;;;6.05;67.83;101121.25;5022642;28;20544;-82
2022/02/04 16:59:47;;;;;;;0.10;0.10;;;;;;;6.17;67.24;101124.78;5023038;28;20049;-84
2022/02/04 17:02:49;;;;;;;0.10;0.10;;;;;;;6.15;67.39;101132.69;4999654;28;20046;-85
2022/02/04 17:05:37;;;;;;;0.10;0.10;;;;;;;6.24;67.14;101131.84;4997206;28;20035;-83
2022/02/04 17:08:36;;;;;;;0.10;0.10;;;;;;;6.21;67.11;101131.84;4998875;28;20030;-85
2022/02/04 17:11:26;;;;;;;3.03;1.38;;;;;;;6.35;67.03;101129.25;4992080;28;20037;-87
2022/02/04 17:19:34;;;;;;;0.30;0.30;;;;;;;6.39;66.65;101150.31;4994146;28;20070;-82
2022/02/04 17:22:14;;;;;;;0.47;0.47;;;;;;;6.54;66.42;101156.47;4993326;28;20046;-83
2022/02/04 17:25:07;;;;;;;0.10;0.10;;;;;;;6.53;66.01;101162.59;4993276;28;20044;-83
2022/02/04 17:27:48;;;;;;;0.10;0.10;;;;;;;6.68;65.69;101154.75;4971396;28;20113;-84
2022/02/04 17:35:39;;;;;;;0.10;0.10;;;;;;;6.84;65.74;101176.72;5002227;28;20053;-86
2022/02/04 17:38:18;;;;;;;1.35;0.65;;;;;;;6.87;65.39;101175.81;4980769;28;20145;-83
2022/02/04 17:46:42;;;;;;;0.10;0.10;;;;;;;7.14;65.33;101196.03;4972766;28;20041;-83
2022/02/04 17:49:54;;;;;;;0.10;0.10;;;;;;;7.26;64.48;101198.66;4979851;28;20046;-83
2022/02/04 17:55:13;;;;;;;0.10;0.10;;;;;;;7.24;64.96;101207.44;5179690;23;20054;-80
2022/02/04 18:03:36;;;;;;;0.10;0.10;;;;;;;7.28;64.05;101215.34;5060526;27;20391;-85
2022/02/04 18:08:45;;;;;;;0.10;0.10;;;;;;;7.22;64.52;101214.47;5065697;28;20457;-81
2022/02/04 18:11:11;;;;;;;0.10;0.10;;;;;;;7.25;64.80;101223.25;5069970;28;20479;-82
2022/02/04 18:13:37;;;;;;;1.00;0.57;;;;;;;7.27;64.50;101236.44;5070194;28;20039;-81